Time;durP1;ratioP1;P1;durP2;ratioP2;P2;SDS_P1;SDS_P2;PMS_P1;PMS_P2;Temp;Humidity;BMP_temperature;BMP_pressure;BME280_temperature;BME280_humidity;BME280_pressure;Samples;Min_cycle;Max_cycle;Signal;HPM_P1;HPM_P2
2021/04/23 07:26:40;;;;;;;1.27;1.15;;;19.80;51.50;;;;;;5041556;28;20445;-32
2021/04/23 07:29:06;;;;;;;1.77;1.30;;;21.20;48.30;;;;;;5034633;28;20443;-34
2021/04/23 07:31:31;;;;;;;3.10;1.70;;;21.10;48.30;;;;;;5033085;28;20036;-35
2021/04/23 07:33:57;;;;;;;1.35;1.25;;;21.00;48.00;;;;;;5036024;28;20042;-35
2021/04/23 07:36:23;;;;;;;1.45;1.10;;;21.00;48.80;;;;;;5034794;28;20018;-35
2021/04/23 07:38:49;;;;;;;1.50;1.10;;;21.00;48.90;;;;;;5026154;28;20406;-32
2021/04/23 07:41:14;;;;;;;2.45;1.45;;;21.00;49.00;;;;;;5022385;28;20030;-33
2021/04/23 07:43:40;;;;;;;2.00;1.60;;;20.90;48.70;;;;;;5023808;28;20034;-34
2021/04/23 07:46:06;;;;;;;3.63;1.70;;;20.70;48.50;;;;;;5021980;28;20030;-36
2021/04/23 07:48:31;;;;;;;1.35;1.25;;;20.70;49.30;;;;;;5019004;28;20113;-35
2021/04/23 07:50:57;;;;;;;1.25;1.15;;;20.90;49.20;;;;;;5021980;28;20029;-37
2021/04/23 07:53:22;;;;;;;1.40;1.30;;;21.00;48.90;;;;;;5031270;28;20044;-33
2021/04/23 07:55:48;;;;;;;1.40;1.30;;;21.10;49.00;;;;;;5025769;28;20038;-38
2021/04/23 07:58:14;;;;;;;1.75;1.40;;;21.10;49.60;;;;;;5023319;28;20557;-38
2021/04/23 08:00:39;;;;;;;2.45;1.40;;;21.10;48.80;;;;;;4671921;28;10000250;-36
2021/04/23 08:03:05;;;;;;;1.83;1.48;;;21.10;48.90;;;;;;5017263;28;20091;-33
2021/04/23 08:05:31;;;;;;;1.15;1.05;;;21.10;49.00;;;;;;5020051;28;20184;-30
2021/04/23 08:07:56;;;;;;;2.40;1.42;;;21.20;49.40;;;;;;5013845;28;20029;-38
2021/04/23 08:10:22;;;;;;;2.28;1.30;;;21.20;49.50;;;;;;5004526;28;20018;-37
2021/04/23 08:12:48;;;;;;;1.90;1.40;;;21.30;49.50;;;;;;5009698;28;20038;-37
2021/04/23 08:15:15;;;;;;;1.35;1.20;;;21.30;49.80;;;;;;5008307;28;20041;-33
2021/04/23 08:17:40;;;;;;;1.40;1.30;;;21.40;49.90;;;;;;5013936;28;20037;-31
2021/04/23 08:20:07;;;;;;;2.22;1.35;;;21.30;49.80;;;;;;4992178;28;20054;-38
2021/04/23 08:22:33;;;;;;;1.63;1.50;;;21.40;49.50;;;;;;4998721;28;20048;-36
2021/04/23 08:24:59;;;;;;;1.80;1.70;;;21.50;49.00;;;;;;5000704;28;21339;-36
2021/04/23 08:27:24;;;;;;;3.55;1.75;;;21.50;48.50;;;;;;4999766;28;20038;-31
2021/04/23 08:29:50;;;;;;;3.03;2.20;;;21.50;48.90;;;;;;4998670;28;20040;-37
2021/04/23 08:32:16;;;;;;;5.25;2.00;;;21.50;49.20;;;;;;4998527;28;20046;-35
2021/04/23 08:34:41;;;;;;;2.13;1.92;;;21.50;49.60;;;;;;4997982;28;20038;-30
2021/04/23 08:37:07;;;;;;;4.10;2.10;;;21.60;49.60;;;;;;4999794;28;20036;-32
2021/04/23 08:39:33;;;;;;;3.13;2.20;;;21.60;49.20;;;;;;4997635;28;20220;-27
2021/04/23 08:41:58;;;;;;;5.65;2.40;;;21.60;48.70;;;;;;4998251;28;20038;-39
2021/04/23 08:44:24;;;;;;;5.57;2.47;;;21.60;48.20;;;;;;4997026;28;20025;-39
2021/04/23 08:46:49;;;;;;;4.38;2.22;;;21.60;47.30;;;;;;4996765;28;20053;-38
2021/04/23 08:49:17;;;;;;;3.55;2.70;;;21.60;46.40;;;;;;4996699;28;20034;-35
2021/04/23 08:51:43;;;;;;;5.68;2.88;;;21.60;46.30;;;;;;4996215;28;20034;-44
2021/04/23 08:54:09;;;;;;;5.15;2.63;;;21.60;45.90;;;;;;4994181;28;20084;-40
2021/04/23 08:56:35;;;;;;;4.28;2.42;;;21.60;45.70;;;;;;4995401;28;20025;-43
2021/04/23 08:59:00;;;;;;;7.93;2.80;;;21.60;45.50;;;;;;4997782;28;20045;-34
2021/04/23 09:01:27;;;;;;;4.75;2.60;;;21.60;45.10;;;;;;4997800;28;20036;-36
2021/04/23 09:03:52;;;;;;;5.85;2.10;;;21.60;44.50;;;;;;4991181;28;20092;-35
2021/04/23 09:06:21;;;;;;;4.68;1.73;;;21.60;46.30;;;;;;4994471;28;20660;-38
2021/04/23 09:09:07;;;;;;;2.63;2.20;;;21.60;45.60;;;;;;4987090;28;20034;-39
2021/04/23 09:11:44;;;;;;;3.58;1.98;;;21.60;46.80;;;;;;4990515;28;20041;-39
2021/04/23 09:14:14;;;;;;;3.33;2.10;;;21.80;46.40;;;;;;4985644;28;20042;-36
2021/04/23 09:16:57;;;;;;;2.63;2.42;;;21.80;46.30;;;;;;4989327;28;20121;-38
2021/04/23 09:19:25;;;;;;;4.78;2.10;;;21.90;47.20;;;;;;4988628;28;20073;-42
2021/04/23 09:22:20;;;;;;;2.78;2.13;;;22.00;46.00;;;;;;4989094;28;20508;-42
2021/04/23 09:24:52;;;;;;;2.22;2.00;;;22.10;46.30;;;;;;4983024;28;20046;-40
2021/04/23 09:27:20;;;;;;;2.22;1.60;;;22.10;46.20;;;;;;4989786;28;20045;-41
2021/04/23 09:29:47;;;;;;;4.95;2.08;;;22.20;46.10;;;;;;4988055;28;20030;-39
2021/04/23 09:32:15;;;;;;;2.53;1.80;;;22.20;46.10;;;;;;4988436;28;21299;-39
2021/04/23 09:34:50;;;;;;;2.58;2.08;;;22.30;46.00;;;;;;4987773;28;20038;-39
2021/04/23 09:37:17;;;;;;;1.90;1.73;;;22.30;45.90;;;;;;4988861;28;21132;-39
2021/04/23 09:39:43;;;;;;;2.25;2.05;;;22.30;45.90;;;;;;4988814;28;20038;-41
2021/04/23 09:42:11;;;;;;;2.40;1.75;;;22.40;45.90;;;;;;4987848;28;20049;-40
2021/04/23 09:44:38;;;;;;;3.15;2.00;;;22.40;45.80;;;;;;4983794;28;20037;-39
2021/04/23 09:47:11;;;;;;;2.00;1.80;;;22.40;46.00;;;;;;4987902;28;20146;-35
2021/04/23 09:49:36;;;;;;;6.25;2.97;;;22.40;46.00;;;;;;4984210;28;20044;-40
2021/04/23 09:52:03;;;;;;;7.60;2.83;;;22.40;46.20;;;;;;4987738;28;20038;-37
2021/04/23 09:54:29;;;;;;;6.32;3.05;;;22.40;46.20;;;;;;4982347;28;20037;-39
2021/04/23 09:56:55;;;;;;;3.97;3.20;;;22.30;46.70;;;;;;4986684;28;20092;-40
2021/04/23 09:59:28;;;;;;;5.30;3.17;;;22.40;46.60;;;;;;4987722;28;20117;-42
2021/04/23 10:01:58;;;;;;;6.05;2.83;;;22.50;45.90;;;;;;4988641;28;20820;-42
2021/04/23 10:04:34;;;;;;;7.10;3.38;;;22.50;44.80;;;;;;4985935;28;20041;-42
2021/04/23 10:07:06;;;;;;;3.60;3.08;;;22.50;44.90;;;;;;4988831;28;20101;-37
2021/04/23 10:10:00;;;;;;;4.15;2.80;;;22.50;44.60;;;;;;4987587;28;20033;-40
2021/04/23 10:12:31;;;;;;;5.03;2.53;;;22.50;45.10;;;;;;4984346;28;20372;-39
2021/04/23 10:15:08;;;;;;;4.50;2.50;;;22.60;44.40;;;;;;4984400;28;20041;-40
2021/04/23 10:17:35;;;;;;;3.83;2.83;;;22.70;44.70;;;;;;4989118;28;21727;-38
2021/04/23 10:20:01;;;;;;;4.90;2.70;;;22.70;44.60;;;;;;4985767;28;20038;-41
2021/04/23 10:22:27;;;;;;;3.53;2.72;;;22.70;43.90;;;;;;4986693;28;21297;-38
2021/04/23 10:24:53;;;;;;;4.85;3.10;;;22.80;43.80;;;;;;4986180;28;20057;-39
2021/04/23 10:27:19;;;;;;;4.32;2.97;;;22.80;43.70;;;;;;4988927;28;20034;-40
2021/04/23 10:29:45;;;;;;;4.35;3.30;;;22.80;43.60;;;;;;5018022;28;20037;-40
2021/04/23 10:32:12;;;;;;;5.72;3.58;;;22.90;43.70;;;;;;4985422;28;20033;-38
2021/04/23 10:34:37;;;;;;;4.63;3.70;;;22.90;43.40;;;;;;4983754;28;21544;-41
2021/04/23 10:37:03;;;;;;;4.43;3.40;;;22.90;43.70;;;;;;4987159;28;20026;-40
2021/04/23 10:39:32;;;;;;;6.30;3.78;;;23.00;43.30;;;;;;4985992;28;20034;-37
2021/04/23 10:41:57;;;;;;;6.80;4.07;;;23.00;42.60;;;;;;4986444;28;20715;-41
2021/04/23 10:44:23;;;;;;;7.18;3.35;;;22.90;43.10;;;;;;4983220;28;20038;-40
2021/04/23 10:46:52;;;;;;;4.20;3.58;;;23.00;42.90;;;;;;4985635;28;20687;-47
2021/04/23 10:49:17;;;;;;;5.70;3.60;;;22.90;43.20;;;;;;4985633;28;20088;-37
2021/04/23 10:51:44;;;;;;;3.08;2.83;;;22.90;42.90;;;;;;4986014;28;20538;-47
2021/04/23 10:54:15;;;;;;;5.00;3.63;;;22.90;44.00;;;;;;4985242;28;20061;-45
2021/04/23 10:56:50;;;;;;;3.92;3.58;;;22.90;44.00;;;;;;4987337;28;20029;-47
2021/04/23 10:59:22;;;;;;;3.17;2.90;;;23.00;43.10;;;;;;4986339;28;20034;-45
2021/04/23 11:01:51;;;;;;;3.38;3.08;;;23.00;43.40;;;;;;4986734;28;20045;-38
2021/04/23 11:04:18;;;;;;;5.03;2.90;;;23.00;42.80;;;;;;4984115;28;20137;-40
2021/04/23 11:06:54;;;;;;;3.67;2.88;;;23.10;43.30;;;;;;4987908;28;20038;-39
2021/04/23 11:09:23;;;;;;;3.05;2.72;;;23.10;43.20;;;;;;4985120;28;20041;-40
2021/04/23 11:12:07;;;;;;;2.95;2.67;;;23.10;43.20;;;;;;4982245;28;20049;-40
2021/04/23 11:14:33;;;;;;;;;;;23.20;43.40;;;;;;4981817;28;20065;-42
2021/04/23 11:17:16;;;;;;;6.78;2.60;;;23.20;43.60;;;;;;4986557;28;21129;-41
2021/04/23 11:19:42;;;;;;;3.80;2.85;;;23.20;43.60;;;;;;4987735;28;20752;-38
2021/04/23 11:22:10;;;;;;;4.20;2.75;;;23.30;43.80;;;;;;4987779;28;20594;-40
2021/04/23 11:24:36;;;;;;;3.80;2.70;;;23.20;43.70;;;;;;4983825;28;20054;-43
2021/04/23 11:27:09;;;;;;;2.90;2.65;;;23.20;43.10;;;;;;4986375;28;20034;-42
2021/04/23 11:29:38;;;;;;;2.60;2.40;;;23.30;43.40;;;;;;4985839;28;20040;-38
2021/04/23 11:32:17;;;;;;;2.97;2.30;;;23.30;43.80;;;;;;4990334;28;20038;-36
2021/04/23 11:34:47;;;;;;;4.35;2.33;;;23.30;44.00;;;;;;4986988;28;20069;-38
2021/04/23 11:37:14;;;;;;;2.90;2.45;;;23.30;44.10;;;;;;4990573;28;20216;-40
2021/04/23 11:39:44;;;;;;;2.47;2.28;;;23.40;43.30;;;;;;4990825;28;20046;-42
2021/04/23 11:42:37;;;;;;;2.63;2.42;;;23.40;43.90;;;;;;4988795;28;20034;-42
2021/04/23 11:45:03;;;;;;;2.42;2.10;;;23.30;43.50;;;;;;4983750;28;20093;-41
2021/04/23 11:47:32;;;;;;;2.42;2.25;;;23.40;43.80;;;;;;4991404;28;20038;-41
2021/04/23 11:50:00;;;;;;;2.40;2.15;;;23.40;44.20;;;;;;4990616;28;20053;-40
2021/04/23 11:52:29;;;;;;;2.10;1.88;;;23.40;44.50;;;;;;4989274;28;20088;-49
2021/04/23 11:54:55;;;;;;;2.78;1.90;;;23.40;43.40;;;;;;4991253;28;20053;-48
2021/04/23 11:57:26;;;;;;;3.58;2.00;;;23.40;43.00;;;;;;4992077;28;20073;-45
2021/04/23 12:00:24;;;;;;;2.10;1.92;;;23.40;43.00;;;;;;4992268;28;20108;-36
2021/04/23 12:02:54;;;;;;;3.55;2.15;;;23.50;43.60;;;;;;4986899;28;20111;-43
2021/04/23 12:05:24;;;;;;;3.88;2.38;;;23.50;43.10;;;;;;4983981;28;20089;-48
2021/04/23 12:07:51;;;;;;;2.10;1.90;;;23.40;42.60;;;;;;4985544;28;20444;-38
2021/04/23 12:10:17;;;;;;;2.65;2.35;;;23.50;42.70;;;;;;4970379;28;20042;-43
2021/04/23 12:12:44;;;;;;;2.53;2.10;;;23.50;43.00;;;;;;4984782;28;20487;-42
2021/04/23 12:15:20;;;;;;;2.35;2.17;;;23.50;42.90;;;;;;4984894;28;20089;-47
2021/04/23 12:17:45;;;;;;;2.05;1.95;;;23.50;42.10;;;;;;4985266;28;20075;-43
2021/04/23 12:20:22;;;;;;;2.47;2.28;;;23.50;43.30;;;;;;4985051;28;20532;-51
2021/04/23 12:22:48;;;;;;;2.85;2.00;;;23.50;43.30;;;;;;4984839;28;20042;-48
2021/04/23 12:25:21;;;;;;;3.25;2.40;;;23.60;43.50;;;;;;4983578;28;20421;-39
2021/04/23 12:27:47;;;;;;;1.95;1.85;;;23.60;42.50;;;;;;4987173;28;20160;-47
2021/04/23 12:30:12;;;;;;;3.30;2.05;;;23.50;42.60;;;;;;4969586;28;20099;-36
2021/04/23 12:32:52;;;;;;;4.93;2.15;;;23.50;43.00;;;;;;4981111;28;20073;-40
2021/04/23 12:35:36;;;;;;;5.32;2.03;;;23.60;42.60;;;;;;4979273;28;20046;-42
2021/04/23 12:38:03;;;;;;;2.40;2.10;;;23.50;43.40;;;;;;4982715;28;20046;-51
2021/04/23 12:40:33;;;;;;;2.85;2.10;;;23.60;43.30;;;;;;4986472;28;20041;-50
2021/04/23 12:42:59;;;;;;;1.80;1.70;;;23.60;43.00;;;;;;4984397;28;20030;-39
2021/04/23 12:45:24;;;;;;;1.88;1.65;;;23.50;43.50;;;;;;4983064;28;20412;-40
2021/04/23 12:47:50;;;;;;;2.22;1.80;;;23.50;43.40;;;;;;4986132;28;20033;-51
2021/04/23 12:50:16;;;;;;;1.80;1.70;;;23.50;43.10;;;;;;4986297;28;20042;-45
2021/04/23 12:52:44;;;;;;;2.30;2.20;;;23.50;43.40;;;;;;4982541;28;20038;-46
2021/04/23 12:55:10;;;;;;;2.40;1.77;;;23.40;43.90;;;;;;4983399;28;20038;-46
2021/04/23 12:57:35;;;;;;;2.40;1.90;;;23.50;43.70;;;;;;4983849;28;20041;-50
2021/04/23 13:00:10;;;;;;;2.85;1.90;;;23.50;43.50;;;;;;4983544;28;20046;-47
2021/04/23 13:02:38;;;;;;;2.15;1.98;;;23.50;43.60;;;;;;4983093;28;20030;-41
2021/04/23 13:05:07;;;;;;;2.10;1.90;;;23.50;44.00;;;;;;4984188;28;20793;-46
2021/04/23 13:07:35;;;;;;;2.70;2.05;;;23.50;44.20;;;;;;4981679;28;20045;-45
2021/04/23 13:10:05;;;;;;;2.80;1.80;;;23.60;44.00;;;;;;4985532;28;20021;-43
2021/04/23 13:12:36;;;;;;;1.88;1.73;;;23.50;43.50;;;;;;4983467;28;20065;-40
2021/04/23 13:15:02;;;;;;;1.90;1.80;;;23.60;43.60;;;;;;4982014;28;20052;-49
2021/04/23 13:17:37;;;;;;;2.20;2.00;;;23.60;43.10;;;;;;4984502;28;20038;-39
2021/04/23 13:20:14;;;;;;;1.95;1.85;;;23.60;43.70;;;;;;4984063;28;20038;-37
2021/04/23 13:22:48;;;;;;;2.10;1.92;;;23.70;44.50;;;;;;4981741;28;20397;-40
2021/04/23 13:25:14;;;;;;;2.30;2.10;;;23.60;43.40;;;;;;4983585;28;20097;-52
2021/04/23 13:27:42;;;;;;;3.80;2.78;;;23.70;43.60;;;;;;4985187;28;21192;-41
2021/04/23 13:30:09;;;;;;;5.90;3.47;;;23.70;43.40;;;;;;4997855;28;20055;-37
2021/04/23 13:32:54;;;;;;;16.58;5.03;;;23.70;43.10;;;;;;5001976;28;20060;-37
2021/04/23 13:35:28;;;;;;;17.60;5.90;;;23.70;43.30;;;;;;4999683;28;20046;-39
2021/04/23 13:37:54;;;;;;;15.48;5.63;;;23.70;43.90;;;;;;5004337;28;20046;-38
2021/04/23 13:40:25;;;;;;;14.60;5.28;;;23.60;43.90;;;;;;5006839;28;20099;-36
2021/04/23 13:42:51;;;;;;;13.07;5.10;;;23.70;44.20;;;;;;5005113;28;20049;-40
2021/04/23 13:45:17;;;;;;;10.73;4.20;;;23.60;43.90;;;;;;5004530;28;20131;-39
2021/04/23 13:47:42;;;;;;;10.40;4.40;;;23.60;43.80;;;;;;5012241;28;20077;-38
2021/04/23 13:50:13;;;;;;;13.43;4.15;;;23.60;44.20;;;;;;5006537;28;20054;-39
2021/04/23 13:52:46;;;;;;;8.77;4.53;;;23.70;43.90;;;;;;5003742;28;20630;-39
2021/04/23 13:55:12;;;;;;;7.57;3.83;;;23.60;44.10;;;;;;5006666;28;20085;-45
2021/04/23 13:57:38;;;;;;;11.00;4.10;;;23.70;44.10;;;;;;5008002;28;20050;-36
2021/04/23 14:00:05;;;;;;;8.02;4.25;;;23.70;44.20;;;;;;5005698;28;20072;-39
2021/04/23 14:02:31;;;;;;;8.55;4.25;;;23.70;43.90;;;;;;5005074;28;21012;-36
2021/04/23 14:04:56;;;;;;;6.82;3.88;;;23.70;44.10;;;;;;5005682;28;20030;-35
2021/04/23 14:07:23;;;;;;;10.30;3.67;;;23.70;44.30;;;;;;5007070;28;20054;-36
2021/04/23 14:09:49;;;;;;;6.82;3.85;;;23.70;44.00;;;;;;5007591;28;20033;-38
2021/04/23 14:12:20;;;;;;;5.90;3.53;;;23.80;44.00;;;;;;5005535;28;20058;-46
2021/04/23 14:14:45;;;;;;;7.43;3.55;;;23.70;44.10;;;;;;5003990;28;20052;-37
2021/04/23 14:17:15;;;;;;;6.55;3.60;;;23.70;43.80;;;;;;5005506;28;20463;-34
2021/04/23 14:19:42;;;;;;;7.97;3.72;;;23.70;44.00;;;;;;5004775;28;20041;-32
2021/04/23 14:22:08;;;;;;;5.50;3.45;;;23.60;44.30;;;;;;5007782;28;20523;-41
2021/04/23 14:24:34;;;;;;;7.35;3.67;;;23.70;44.00;;;;;;5004826;28;20091;-37
2021/04/23 14:27:00;;;;;;;5.95;3.55;;;23.70;43.60;;;;;;5005419;28;20070;-36
2021/04/23 14:29:25;;;;;;;5.20;2.95;;;23.70;44.00;;;;;;5001575;28;20124;-35
2021/04/23 14:31:52;;;;;;;4.57;2.85;;;23.70;43.90;;;;;;5003808;28;20554;-37
2021/04/23 14:34:18;;;;;;;3.53;2.55;;;23.70;43.80;;;;;;5004620;28;20042;-39
2021/04/23 14:36:43;;;;;;;4.95;2.90;;;23.60;44.00;;;;;;5004499;28;20077;-39
2021/04/23 14:39:10;;;;;;;3.75;2.75;;;23.70;44.10;;;;;;4658707;28;10000314;-40
2021/04/23 14:41:36;;;;;;;6.63;2.53;;;23.60;44.20;;;;;;5001093;28;20165;-37
2021/04/23 14:44:02;;;;;;;4.38;2.90;;;23.60;44.20;;;;;;5001679;28;20133;-37
2021/04/23 14:46:28;;;;;;;4.97;2.95;;;23.60;43.70;;;;;;5000399;28;20046;-36
2021/04/23 14:48:53;;;;;;;4.60;2.97;;;23.60;44.20;;;;;;5004031;28;20086;-44
2021/04/23 14:51:19;;;;;;;4.60;2.92;;;23.70;44.10;;;;;;5002198;28;20038;-38
2021/04/23 14:53:45;;;;;;;3.83;2.88;;;23.60;44.30;;;;;;5000809;28;20073;-37
2021/04/23 14:56:11;;;;;;;3.72;2.60;;;23.70;44.00;;;;;;4999354;28;20096;-33
2021/04/23 14:58:37;;;;;;;3.22;2.85;;;23.70;44.50;;;;;;5000720;28;20065;-32
2021/04/23 15:01:02;;;;;;;2.97;2.40;;;23.70;44.10;;;;;;5002404;28;20065;-34
2021/04/23 15:03:28;;;;;;;2.47;2.17;;;23.70;44.00;;;;;;4996500;28;20041;-40
2021/04/23 15:05:54;;;;;;;2.78;2.40;;;23.70;44.20;;;;;;5004258;28;20081;-36
2021/04/23 15:08:20;;;;;;;3.17;2.22;;;23.70;43.90;;;;;;5010495;28;20046;-35
2021/04/23 15:10:46;;;;;;;3.63;2.58;;;23.70;44.20;;;;;;4998479;28;20077;-33
2021/04/23 15:13:11;;;;;;;4.72;2.40;;;23.70;44.30;;;;;;5005145;28;20046;-35
2021/04/23 15:15:37;;;;;;;2.60;2.10;;;23.70;44.30;;;;;;5000338;28;20201;-37
2021/04/23 15:18:04;;;;;;;3.28;2.30;;;23.70;43.90;;;;;;5002163;28;20112;-41
2021/04/23 15:20:29;;;;;;;2.50;2.30;;;23.80;44.30;;;;;;5003883;28;20424;-35
2021/04/23 15:22:55;;;;;;;5.72;2.50;;;23.80;44.20;;;;;;4999441;28;20692;-34
2021/04/23 15:25:22;;;;;;;2.65;2.20;;;23.70;44.40;;;;;;5002136;28;20160;-39
2021/04/23 15:27:47;;;;;;;2.58;2.22;;;23.80;44.30;;;;;;5005495;28;20539;-37
2021/04/23 15:30:24;;;;;;;2.65;2.35;;;23.70;44.60;;;;;;5005568;28;20168;-41
2021/04/23 15:32:49;;;;;;;2.55;1.90;;;23.80;44.20;;;;;;5001240;28;20041;-36
2021/04/23 15:35:16;;;;;;;2.13;2.03;;;23.80;44.30;;;;;;4987567;28;20443;-38
2021/04/23 15:37:42;;;;;;;3.20;2.10;;;23.70;44.30;;;;;;5004346;28;20049;-40
2021/04/23 15:40:09;;;;;;;2.33;1.88;;;23.80;44.40;;;;;;5006329;28;20046;-38
2021/04/23 15:42:41;;;;;;;2.00;1.80;;;23.90;44.20;;;;;;5004391;28;20042;-35
2021/04/23 15:45:12;;;;;;;2.22;1.88;;;23.80;44.20;;;;;;5001137;28;20420;-42
2021/04/23 15:47:38;;;;;;;2.00;1.80;;;23.80;44.10;;;;;;5003858;28;20523;-40
2021/04/23 15:50:05;;;;;;;1.95;1.75;;;23.90;44.10;;;;;;5003013;28;20042;-42
2021/04/23 15:52:30;;;;;;;2.78;2.00;;;23.80;44.10;;;;;;5005226;28;20046;-40
2021/04/23 15:54:56;;;;;;;2.08;1.65;;;23.80;43.70;;;;;;5007060;28;20135;-45
2021/04/23 15:57:22;;;;;;;1.90;1.80;;;23.90;44.00;;;;;;5002550;28;20058;-40
2021/04/23 15:59:47;;;;;;;1.83;1.48;;;23.90;44.30;;;;;;5005166;28;20054;-43
2021/04/23 16:02:13;;;;;;;2.47;1.92;;;23.90;44.70;;;;;;5003377;28;20535;-39
2021/04/23 16:04:38;;;;;;;2.45;2.10;;;23.90;43.90;;;;;;5002879;28;20042;-44
2021/04/23 16:07:04;;;;;;;1.85;1.75;;;23.90;44.50;;;;;;5007372;28;20136;-41
2021/04/23 16:09:30;;;;;;;1.75;1.65;;;23.90;44.40;;;;;;5003895;28;20061;-40
2021/04/23 16:11:56;;;;;;;1.83;1.52;;;23.80;43.80;;;;;;5002618;28;20042;-46
2021/04/23 16:14:22;;;;;;;1.88;1.73;;;23.80;44.40;;;;;;5002385;28;20057;-46
2021/04/23 16:16:47;;;;;;;2.03;1.75;;;23.80;43.70;;;;;;5005271;28;20046;-42
2021/04/23 16:19:13;;;;;;;3.42;1.63;;;23.80;44.10;;;;;;5003248;28;20108;-48
2021/04/23 16:21:39;;;;;;;1.88;1.58;;;23.80;44.40;;;;;;5004678;28;20053;-41
2021/04/23 16:24:05;;;;;;;2.10;1.63;;;23.80;42.30;;;;;;4999978;28;20515;-37
2021/04/23 16:26:30;;;;;;;6.20;1.80;;;23.80;44.30;;;;;;5002279;28;20053;-41
2021/04/23 16:28:57;;;;;;;1.80;1.63;;;23.90;43.20;;;;;;5004107;28;20045;-42
2021/04/23 16:31:22;;;;;;;1.73;1.60;;;23.90;43.70;;;;;;5004299;28;20038;-42
2021/04/23 16:33:48;;;;;;;1.85;1.48;;;23.80;44.10;;;;;;5005844;28;20050;-41
2021/04/23 16:36:13;;;;;;;2.92;1.10;;;23.90;44.00;;;;;;5003377;28;20100;-35
2021/04/23 16:38:39;;;;;;;2.58;1.50;;;23.90;44.00;;;;;;5001626;28;20046;-40
2021/04/23 16:41:05;;;;;;;1.88;1.48;;;23.90;44.10;;;;;;5002784;28;20046;-41
2021/04/23 16:43:31;;;;;;;1.70;1.60;;;23.80;43.80;;;;;;5003321;28;20052;-38
2021/04/23 16:45:56;;;;;;;2.17;1.70;;;23.70;44.10;;;;;;5004398;28;20701;-37
2021/04/23 16:48:22;;;;;;;3.38;1.58;;;23.80;43.90;;;;;;5003563;28;20050;-38
2021/04/23 16:50:47;;;;;;;1.73;1.63;;;23.80;43.80;;;;;;5002381;28;20046;-50
2021/04/23 16:53:13;;;;;;;1.58;1.48;;;23.80;43.60;;;;;;4998719;28;20522;-44
2021/04/23 16:55:39;;;;;;;1.67;1.50;;;23.90;43.70;;;;;;5003729;28;20054;-46
2021/04/23 16:58:05;;;;;;;1.55;1.33;;;23.90;42.20;;;;;;5003311;28;20042;-40
2021/04/23 17:00:30;;;;;;;1.35;1.10;;;23.70;39.50;;;;;;5003510;28;20053;-46
2021/04/23 17:02:56;;;;;;;2.10;1.40;;;23.70;39.10;;;;;;5003752;28;20048;-44
2021/04/23 17:05:22;;;;;;;1.60;1.30;;;23.70;36.40;;;;;;5002691;28;20057;-45
2021/04/23 17:07:48;;;;;;;3.50;1.42;;;23.60;34.80;;;;;;5004453;28;20053;-40
2021/04/23 17:10:19;;;;;;;1.40;1.30;;;23.60;34.00;;;;;;5004939;28;20091;-43
2021/04/23 17:12:45;;;;;;;3.53;1.15;;;23.50;34.10;;;;;;5003394;28;20053;-43
2021/04/23 17:15:12;;;;;;;3.65;1.10;;;23.40;33.90;;;;;;5001499;28;20057;-42
2021/04/23 17:17:37;;;;;;;1.42;1.05;;;23.40;33.60;;;;;;5005278;28;20153;-37
2021/04/23 17:20:09;;;;;;;2.20;1.30;;;23.50;34.40;;;;;;5002492;28;20125;-46
2021/04/23 17:22:35;;;;;;;2.75;1.30;;;23.50;33.30;;;;;;5004329;28;20117;-46
2021/04/23 17:25:03;;;;;;;1.92;1.30;;;23.40;33.60;;;;;;5003512;28;20085;-45
2021/04/23 17:27:29;;;;;;;3.38;1.30;;;23.40;33.10;;;;;;5001996;28;20065;-45
2021/04/23 17:29:54;;;;;;;1.92;1.33;;;23.50;33.70;;;;;;5001440;28;20045;-47
2021/04/23 17:32:21;;;;;;;1.17;1.08;;;23.50;33.20;;;;;;4997989;28;20104;-45
2021/04/23 17:34:47;;;;;;;2.05;1.27;;;23.60;33.30;;;;;;5004118;28;20053;-45
2021/04/23 17:37:12;;;;;;;2.08;1.50;;;23.50;33.40;;;;;;5003282;28;20038;-48
2021/04/23 17:39:38;;;;;;;1.90;1.55;;;23.60;33.80;;;;;;5002783;28;20081;-47
2021/04/23 17:42:05;;;;;;;3.30;1.58;;;23.50;33.40;;;;;;5005234;28;20053;-45
2021/04/23 17:44:31;;;;;;;3.35;1.35;;;23.40;33.40;;;;;;4999861;28;20069;-45
2021/04/23 17:46:57;;;;;;;1.40;1.27;;;23.50;33.60;;;;;;5004031;28;20041;-45
2021/04/23 17:49:22;;;;;;;2.08;1.30;;;23.40;33.10;;;;;;5001160;28;20053;-46
2021/04/23 17:51:49;;;;;;;1.52;1.30;;;23.40;33.00;;;;;;5004358;28;20041;-46
2021/04/23 17:54:15;;;;;;;2.03;1.48;;;23.40;32.50;;;;;;5001943;28;20547;-46
2021/04/23 17:56:41;;;;;;;2.92;1.60;;;23.40;32.50;;;;;;5004349;28;20160;-47
2021/04/23 17:59:06;;;;;;;1.88;1.60;;;23.50;33.80;;;;;;5004328;28;20208;-45
2021/04/23 18:01:33;;;;;;;2.42;1.33;;;23.50;32.90;;;;;;5005190;28;20058;-44
2021/04/23 18:03:58;;;;;;;1.20;1.10;;;23.30;33.10;;;;;;5008885;28;20041;-45
2021/04/23 18:06:25;;;;;;;1.23;1.10;;;23.40;33.40;;;;;;5003250;28;20050;-34
2021/04/23 18:08:52;;;;;;;1.20;1.10;;;23.50;33.00;;;;;;5001946;28;20050;-34
2021/04/23 18:11:19;;;;;;;2.15;1.35;;;23.60;32.70;;;;;;4999870;28;20519;-34
2021/04/23 18:13:45;;;;;;;2.10;1.00;;;23.60;32.50;;;;;;5010112;28;20071;-34
2021/04/23 18:16:10;;;;;;;1.55;1.10;;;23.60;32.40;;;;;;5007946;28;20073;-34
2021/04/23 18:18:36;;;;;;;1.75;1.30;;;23.70;32.20;;;;;;5006150;28;20512;-35
2021/04/23 18:21:01;;;;;;;2.95;1.50;;;23.70;32.70;;;;;;5003602;28;20388;-33
2021/04/23 18:23:27;;;;;;;1.80;1.67;;;23.70;32.60;;;;;;5002244;28;20065;-33
2021/04/23 18:25:53;;;;;;;1.63;1.45;;;23.60;32.30;;;;;;5006051;28;20504;-33
2021/04/23 18:28:22;;;;;;;2.17;1.55;;;23.70;33.30;;;;;;5007756;28;20049;-34
2021/04/23 18:30:48;;;;;;;3.42;1.98;;;23.70;32.70;;;;;;5006575;28;20050;-34
2021/04/23 18:33:14;;;;;;;6.35;4.15;;;23.70;32.70;;;;;;5003972;28;20095;-34
2021/04/23 18:35:40;;;;;;;9.68;5.80;;;23.80;33.20;;;;;;5004163;28;20066;-34
2021/04/23 18:38:05;;;;;;;9.80;7.32;;;23.70;33.20;;;;;;5005106;28;20446;-34
2021/04/23 18:40:31;;;;;;;18.35;7.30;;;23.70;33.40;;;;;;5005891;28;20045;-39
2021/04/23 18:42:57;;;;;;;8.80;5.35;;;23.70;33.80;;;;;;5008150;28;20048;-40
2021/04/23 18:45:22;;;;;;;5.97;4.20;;;23.70;33.80;;;;;;5004459;28;20054;-40
2021/04/23 18:47:48;;;;;;;6.85;3.78;;;23.70;34.00;;;;;;5002188;28;20393;-44
2021/04/23 18:50:14;;;;;;;7.22;4.85;;;23.70;34.20;;;;;;5005004;28;20054;-45
2021/04/23 18:52:40;;;;;;;5.00;4.50;;;23.70;34.30;;;;;;5006461;28;20070;-45
2021/04/23 18:55:06;;;;;;;3.55;3.17;;;23.70;34.00;;;;;;5010464;28;20156;-42
2021/04/23 18:57:32;;;;;;;2.17;2.00;;;23.60;34.30;;;;;;5005692;28;20050;-43
2021/04/23 18:59:57;;;;;;;4.43;1.95;;;23.60;34.20;;;;;;5004838;28;20053;-43
2021/04/23 19:02:23;;;;;;;4.07;1.65;;;23.60;34.20;;;;;;4997216;28;20030;-46
2021/04/23 19:04:49;;;;;;;3.40;2.28;;;23.60;34.20;;;;;;5004749;28;20038;-45
2021/04/23 19:07:15;;;;;;;3.65;2.67;;;23.60;34.10;;;;;;5007445;28;20038;-46
2021/04/23 19:09:41;;;;;;;3.45;2.70;;;23.70;34.00;;;;;;5005964;28;20504;-42
2021/04/23 19:12:06;;;;;;;4.10;2.58;;;23.60;34.00;;;;;;5002663;28;20049;-43
2021/04/23 19:14:32;;;;;;;2.97;2.63;;;23.70;33.60;;;;;;5006444;28;20200;-44
2021/04/23 19:16:57;;;;;;;3.58;2.50;;;23.70;33.60;;;;;;5005452;28;20038;-45
2021/04/23 19:19:23;;;;;;;2.50;2.30;;;23.70;33.60;;;;;;5005296;28;20041;-45
2021/04/23 19:21:56;;;;;;;3.15;2.65;;;23.70;33.10;;;;;;5008097;28;20049;-44
2021/04/23 19:24:22;;;;;;;3.40;2.20;;;23.50;34.90;;;;;;5006226;28;20049;-42
2021/04/23 19:26:47;;;;;;;2.88;2.67;;;23.50;35.30;;;;;;5005911;28;20042;-43
2021/04/23 19:29:15;;;;;;;2.83;2.60;;;23.60;35.40;;;;;;5006091;28;20177;-41
2021/04/23 19:31:41;;;;;;;2.78;2.40;;;23.60;35.40;;;;;;5005253;28;20077;-44
2021/04/23 19:34:07;;;;;;;2.45;2.25;;;23.70;35.20;;;;;;5005588;28;20141;-46
2021/04/23 19:36:32;;;;;;;2.53;2.20;;;23.60;35.90;;;;;;5005696;28;20136;-46
2021/04/23 19:38:58;;;;;;;2.65;1.80;;;23.50;35.70;;;;;;5004515;28;20049;-45
2021/04/23 19:41:23;;;;;;;2.65;1.75;;;23.50;35.60;;;;;;5005386;28;20416;-45
2021/04/23 19:43:49;;;;;;;2.10;1.65;;;23.60;35.60;;;;;;5004031;28;20038;-45
2021/04/23 19:46:14;;;;;;;3.63;2.08;;;23.60;36.30;;;;;;5006463;28;20049;-42
2021/04/23 19:48:41;;;;;;;2.42;2.20;;;23.60;36.40;;;;;;5004728;28;20042;-45
2021/04/23 19:51:07;;;;;;;3.88;2.53;;;23.60;36.50;;;;;;5003024;28;20042;-46
2021/04/23 19:53:32;;;;;;;3.78;2.10;;;23.60;37.10;;;;;;5008157;28;20049;-45
2021/04/23 19:56:01;;;;;;;2.08;1.90;;;23.50;37.00;;;;;;5007035;28;20050;-45
2021/04/23 19:58:27;;;;;;;2.05;1.50;;;23.40;38.20;;;;;;5008714;28;20065;-45
2021/04/23 20:00:52;;;;;;;2.35;2.15;;;23.10;38.20;;;;;;5010823;28;20176;-42
2021/04/23 20:03:18;;;;;;;1.55;1.45;;;23.00;38.90;;;;;;5009267;28;20069;-45
2021/04/23 20:05:44;;;;;;;1.70;1.60;;;22.80;39.10;;;;;;5008638;28;20534;-44
2021/04/23 20:08:09;;;;;;;1.80;1.70;;;22.60;39.50;;;;;;5000765;28;20049;-47
2021/04/23 20:10:35;;;;;;;2.13;1.95;;;22.80;39.90;;;;;;5008375;28;20041;-46
2021/04/23 20:13:00;;;;;;;1.98;1.77;;;22.90;39.40;;;;;;5006748;28;20049;-44